Time;durP1;ratioP1;P1;durP2;ratioP2;P2;SDS_P1;SDS_P2;PMS_P1;PMS_P2;Temp;Humidity;BMP_temperature;BMP_pressure;BME280_temperature;BME280_humidity;BME280_pressure;Samples;Min_cycle;Max_cycle;Signal;HPM_P1;HPM_P2
2021/07/01 00:01:57;;;;;;;1.30;1.10;;;13.00;99.90;;;;;;4985135;28;20481;-67
2021/07/01 00:04:25;;;;;;;1.30;1.10;;;13.00;99.90;;;;;;4985231;28;21013;-67
2021/07/01 00:06:52;;;;;;;1.15;1.05;;;13.00;99.90;;;;;;4985710;28;20477;-68
2021/07/01 00:09:23;;;;;;;0.90;0.80;;;12.90;99.90;;;;;;4984562;28;20207;-68
2021/07/01 00:11:52;;;;;;;2.60;1.40;;;12.90;99.90;;;;;;4983432;28;20211;-68
2021/07/01 00:14:20;;;;;;;1.27;1.17;;;12.90;99.90;;;;;;4984194;28;20504;-68
2021/07/01 00:16:47;;;;;;;3.50;1.30;;;12.90;99.90;;;;;;4984723;28;20214;-68
2021/07/01 00:19:14;;;;;;;1.27;1.17;;;12.90;99.90;;;;;;4984216;28;20466;-69
2021/07/01 00:21:42;;;;;;;1.65;1.02;;;12.90;99.90;;;;;;4982431;28;20863;-68
2021/07/01 00:24:09;;;;;;;1.27;1.00;;;12.90;99.90;;;;;;4985002;28;20231;-68
2021/07/01 00:26:37;;;;;;;3.05;0.90;;;12.90;99.90;;;;;;4984716;28;20469;-68
2021/07/01 00:29:03;;;;;;;2.33;1.20;;;12.90;99.90;;;;;;4985601;28;20234;-69
2021/07/01 00:31:30;;;;;;;1.20;1.10;;;12.90;99.90;;;;;;4984669;28;20210;-68
2021/07/01 00:33:58;;;;;;;1.48;1.15;;;12.90;99.90;;;;;;4985526;28;20317;-68
2021/07/01 00:36:24;;;;;;;1.65;1.10;;;12.90;99.90;;;;;;4985415;28;20210;-67
2021/07/01 00:38:52;;;;;;;1.23;0.90;;;12.90;99.90;;;;;;4984910;28;20211;-68
2021/07/01 00:41:19;;;;;;;1.00;0.90;;;12.90;99.90;;;;;;4984229;28;20207;-67
2021/07/01 00:43:46;;;;;;;1.20;1.00;;;12.90;99.90;;;;;;4983909;28;20223;-68
2021/07/01 00:46:13;;;;;;;2.80;1.05;;;12.90;99.90;;;;;;4985205;28;20241;-68
2021/07/01 00:48:40;;;;;;;1.10;1.00;;;12.90;99.90;;;;;;4984781;28;20214;-68
2021/07/01 00:51:07;;;;;;;1.17;1.00;;;12.90;99.90;;;;;;4985368;28;20466;-68
2021/07/01 00:53:34;;;;;;;1.00;0.90;;;13.00;99.90;;;;;;4985891;28;20249;-67
2021/07/01 00:56:05;;;;;;;1.00;0.90;;;13.00;99.90;;;;;;4986215;28;20965;-68
2021/07/01 00:58:32;;;;;;;1.60;0.95;;;13.00;99.90;;;;;;4986683;28;20199;-68
2021/07/01 01:01:02;;;;;;;1.15;0.93;;;13.00;99.90;;;;;;4985641;28;20203;-68
2021/07/01 01:03:29;;;;;;;1.10;0.95;;;13.00;99.90;;;;;;4985747;28;20225;-67
2021/07/01 01:05:56;;;;;;;1.10;1.00;;;12.90;99.90;;;;;;4987054;28;20318;-68
2021/07/01 01:08:23;;;;;;;1.07;0.90;;;12.90;99.90;;;;;;5068705;23;20492;-76
2021/07/01 01:10:50;;;;;;;6.05;1.25;;;12.80;99.90;;;;;;5008851;28;20848;-75
2021/07/01 01:13:24;;;;;;;2.05;1.05;;;12.90;99.90;;;;;;5008546;28;20714;-74
2021/07/01 01:15:52;;;;;;;1.00;0.90;;;12.90;99.90;;;;;;5009708;28;20201;-75
2021/07/01 01:18:19;;;;;;;0.90;0.80;;;12.90;99.90;;;;;;5009593;28;20465;-75
2021/07/01 01:20:47;;;;;;;0.90;0.80;;;12.90;99.90;;;;;;5009018;28;20298;-74
2021/07/01 01:23:15;;;;;;;1.20;0.85;;;12.90;99.90;;;;;;5009202;28;20485;-76
2021/07/01 01:25:44;;;;;;;1.20;1.02;;;12.90;99.90;;;;;;5009068;28;20230;-75
2021/07/01 01:28:10;;;;;;;1.00;0.90;;;12.90;99.90;;;;;;5009436;28;20237;-74
2021/07/01 01:30:39;;;;;;;1.27;1.00;;;12.80;99.90;;;;;;5008222;28;20457;-75
2021/07/01 01:33:06;;;;;;;1.23;0.98;;;12.90;99.90;;;;;;5009133;28;20234;-74
2021/07/01 01:35:33;;;;;;;0.90;0.80;;;12.90;99.90;;;;;;5008471;28;20317;-75
2021/07/01 01:38:01;;;;;;;1.00;0.90;;;12.80;99.90;;;;;;5009691;28;20465;-75
2021/07/01 01:40:30;;;;;;;0.90;0.80;;;12.90;99.90;;;;;;5008492;28;20202;-75
2021/07/01 01:42:56;;;;;;;1.00;0.90;;;12.90;99.90;;;;;;5008229;28;20225;-76
2021/07/01 01:45:23;;;;;;;0.98;0.85;;;12.90;99.90;;;;;;5001635;28;20186;-75
2021/07/01 01:47:51;;;;;;;1.63;0.95;;;12.90;99.90;;;;;;4999813;28;20210;-75
2021/07/01 01:50:18;;;;;;;2.10;1.10;;;12.90;99.90;;;;;;4999633;28;20202;-75
2021/07/01 01:52:46;;;;;;;1.70;1.10;;;12.80;99.90;;;;;;5008548;28;20199;-75
2021/07/01 01:55:13;;;;;;;0.90;0.80;;;12.80;99.90;;;;;;5010003;28;20489;-75
2021/07/01 01:57:43;;;;;;;1.25;1.15;;;12.80;99.90;;;;;;5012522;28;20461;-75
2021/07/01 02:00:12;;;;;;;1.00;0.90;;;12.90;99.90;;;;;;5012481;28;20202;-76
2021/07/01 02:02:39;;;;;;;0.90;0.80;;;12.80;99.90;;;;;;5012440;28;20807;-75
2021/07/01 02:05:07;;;;;;;2.38;1.00;;;12.80;99.90;;;;;;5012989;28;20199;-75
2021/07/01 02:07:33;;;;;;;1.13;1.00;;;12.80;99.90;;;;;;5012299;28;20199;-75
2021/07/01 02:10:00;;;;;;;1.13;0.98;;;12.90;99.90;;;;;;5012213;28;20665;-75
2021/07/01 02:12:29;;;;;;;1.10;0.90;;;12.80;99.90;;;;;;5012341;28;20202;-75
2021/07/01 02:14:57;;;;;;;1.17;1.00;;;12.80;99.90;;;;;;5012567;28;20528;-75
2021/07/01 02:17:24;;;;;;;1.10;0.80;;;12.80;99.90;;;;;;5012439;28;20464;-74
2021/07/01 02:19:51;;;;;;;1.20;1.10;;;12.90;99.90;;;;;;5012042;28;20843;-75
2021/07/01 02:22:18;;;;;;;2.13;0.93;;;12.80;99.90;;;;;;5012863;28;20202;-76
2021/07/01 02:24:45;;;;;;;1.80;1.02;;;12.80;99.90;;;;;;5012061;28;20894;-75
2021/07/01 02:27:12;;;;;;;2.03;1.00;;;12.80;99.90;;;;;;5012440;28;20210;-75
2021/07/01 02:29:38;;;;;;;2.85;1.10;;;12.80;99.90;;;;;;5011742;28;20621;-76
2021/07/01 02:32:08;;;;;;;1.58;0.80;;;12.80;99.90;;;;;;5012385;28;20552;-75
2021/07/01 02:34:39;;;;;;;1.30;1.07;;;12.90;99.90;;;;;;5011903;28;20230;-74
2021/07/01 02:37:07;;;;;;;1.30;0.90;;;12.90;99.90;;;;;;5012365;28;20461;-75
2021/07/01 02:39:33;;;;;;;1.10;1.00;;;12.90;99.90;;;;;;5011603;28;20583;-74
2021/07/01 02:42:00;;;;;;;1.13;1.00;;;12.90;99.90;;;;;;5012227;28;20460;-75
2021/07/01 02:44:27;;;;;;;1.50;1.20;;;12.90;99.90;;;;;;5011642;28;20598;-75
2021/07/01 02:46:54;;;;;;;1.13;0.90;;;12.90;99.90;;;;;;5011944;28;20202;-75
2021/07/01 02:49:22;;;;;;;1.10;1.00;;;12.90;99.90;;;;;;5011218;28;20217;-75
2021/07/01 02:51:49;;;;;;;1.30;1.20;;;12.90;99.90;;;;;;5011685;28;20472;-75
2021/07/01 02:54:16;;;;;;;1.17;0.90;;;12.90;99.90;;;;;;5011685;28;20484;-75
2021/07/01 02:56:43;;;;;;;2.00;0.97;;;13.00;99.90;;;;;;5011589;28;20256;-74
2021/07/01 02:59:10;;;;;;;1.48;1.00;;;13.00;99.90;;;;;;5010767;28;20465;-74
2021/07/01 03:01:37;;;;;;;2.15;0.98;;;12.90;99.90;;;;;;5011942;28;20594;-73
2021/07/01 03:04:04;;;;;;;2.40;1.20;;;12.90;99.90;;;;;;5011648;28;20225;-75
2021/07/01 03:06:32;;;;;;;1.20;1.00;;;12.90;99.90;;;;;;5011035;28;20206;-75
2021/07/01 03:08:59;;;;;;;1.83;1.10;;;12.80;99.90;;;;;;5011457;28;20214;-75
2021/07/01 03:11:26;;;;;;;1.15;1.02;;;12.80;99.90;;;;;;5011220;28;20286;-75
2021/07/01 03:13:52;;;;;;;1.20;0.90;;;12.80;99.90;;;;;;5010220;28;20226;-75
2021/07/01 03:16:20;;;;;;;1.15;0.98;;;12.80;99.90;;;;;;5009045;28;20229;-75
2021/07/01 03:18:47;;;;;;;1.43;1.33;;;12.80;99.90;;;;;;5011071;28;20281;-74
2021/07/01 03:21:14;;;;;;;1.50;1.30;;;12.80;99.90;;;;;;5010435;28;20465;-75
2021/07/01 03:23:43;;;;;;;1.30;0.97;;;12.80;99.90;;;;;;5011132;28;20241;-74
2021/07/01 03:26:10;;;;;;;3.38;1.02;;;12.80;99.90;;;;;;5011505;28;20468;-74
2021/07/01 03:28:37;;;;;;;1.45;1.20;;;12.80;99.90;;;;;;5011896;28;20206;-75
2021/07/01 03:31:04;;;;;;;3.00;1.20;;;12.80;99.90;;;;;;5010407;28;20577;-75
2021/07/01 03:33:31;;;;;;;2.42;1.10;;;12.80;99.90;;;;;;5011042;28;20516;-76
2021/07/01 03:35:58;;;;;;;1.50;1.20;;;12.80;99.90;;;;;;5010875;28;20226;-75
2021/07/01 03:38:25;;;;;;;1.10;1.00;;;12.80;99.90;;;;;;5011776;28;20457;-77
2021/07/01 03:40:54;;;;;;;1.73;1.20;;;12.80;99.90;;;;;;5011813;28;20488;-76
2021/07/01 03:43:21;;;;;;;2.38;1.00;;;12.80;99.90;;;;;;5011572;28;20571;-76
2021/07/01 03:45:48;;;;;;;1.30;1.10;;;12.90;99.90;;;;;;5011330;28;20206;-77
2021/07/01 03:48:15;;;;;;;1.10;1.00;;;12.90;99.90;;;;;;5012632;28;20470;-76
2021/07/01 03:50:42;;;;;;;1.33;1.20;;;12.80;99.90;;;;;;5010993;28;20470;-77
2021/07/01 03:53:09;;;;;;;1.95;1.30;;;12.80;99.90;;;;;;5010436;28;20230;-76
2021/07/01 03:55:36;;;;;;;2.23;1.30;;;12.90;99.90;;;;;;5010584;28;20599;-77
2021/07/01 03:58:04;;;;;;;2.27;1.20;;;12.90;99.90;;;;;;5010351;28;20468;-77
2021/07/01 04:00:32;;;;;;;1.23;1.03;;;12.90;99.90;;;;;;5010347;28;20469;-75
2021/07/01 04:02:59;;;;;;;1.05;0.90;;;12.90;99.90;;;;;;5009902;28;21061;-77
2021/07/01 04:05:26;;;;;;;2.47;1.00;;;12.90;99.90;;;;;;5010776;28;20237;-76
2021/07/01 04:07:53;;;;;;;1.00;0.90;;;12.90;99.90;;;;;;5011666;28;20232;-76
2021/07/01 04:10:20;;;;;;;1.70;1.13;;;12.90;99.90;;;;;;5010090;28;20472;-75
2021/07/01 04:12:47;;;;;;;1.90;1.70;;;13.00;99.90;;;;;;5010094;28;20841;-76
2021/07/01 04:15:15;;;;;;;1.30;1.20;;;12.90;99.90;;;;;;5010279;28;20531;-76
2021/07/01 04:17:42;;;;;;;1.50;1.40;;;12.90;99.90;;;;;;5010237;28;20202;-76
2021/07/01 04:20:09;;;;;;;1.50;1.30;;;13.00;99.90;;;;;;5009783;28;20959;-75
2021/07/01 04:22:36;;;;;;;1.20;1.05;;;12.90;99.90;;;;;;5010366;28;20465;-75
2021/07/01 04:25:03;;;;;;;1.37;1.20;;;12.90;99.90;;;;;;5009675;28;20205;-74
2021/07/01 04:27:30;;;;;;;2.77;1.40;;;12.90;99.90;;;;;;5010216;28;21022;-75
2021/07/01 04:29:57;;;;;;;1.50;1.23;;;13.00;99.90;;;;;;5009288;28;20469;-76
2021/07/01 04:32:25;;;;;;;2.07;1.33;;;13.00;99.90;;;;;;5009990;28;20461;-75
2021/07/01 04:34:51;;;;;;;1.30;1.08;;;13.00;99.90;;;;;;5009919;28;20492;-75
2021/07/01 04:37:18;;;;;;;2.20;1.50;;;13.00;99.90;;;;;;5010527;28;20206;-75
2021/07/01 04:39:45;;;;;;;1.63;1.20;;;13.00;99.90;;;;;;5009709;28;20470;-76
2021/07/01 04:42:12;;;;;;;1.70;1.25;;;13.00;99.90;;;;;;5010355;28;20457;-76
2021/07/01 04:44:39;;;;;;;4.20;1.60;;;13.00;99.90;;;;;;5010538;28;20231;-76
2021/07/01 04:47:06;;;;;;;1.93;1.43;;;13.00;99.90;;;;;;5010187;28;20229;-76
2021/07/01 04:49:34;;;;;;;1.20;1.10;;;13.00;99.90;;;;;;5009706;28;20873;-76
2021/07/01 04:52:01;;;;;;;2.33;1.43;;;13.00;99.90;;;;;;5009861;28;20218;-76
2021/07/01 04:54:28;;;;;;;1.90;1.67;;;12.90;99.90;;;;;;5009791;28;20492;-76
2021/07/01 04:56:54;;;;;;;2.03;1.50;;;12.90;99.90;;;;;;5010030;28;20461;-76
2021/07/01 04:59:22;;;;;;;1.60;1.50;;;12.90;99.90;;;;;;5009400;28;20727;-76
2021/07/01 05:01:48;;;;;;;1.90;1.27;;;12.90;99.90;;;;;;5009863;28;20468;-76
2021/07/01 05:04:16;;;;;;;1.65;1.55;;;13.00;99.90;;;;;;5009827;28;20493;-76
2021/07/01 05:06:44;;;;;;;2.23;1.67;;;13.10;99.90;;;;;;5009939;28;20205;-76
2021/07/01 05:09:11;;;;;;;1.43;1.30;;;13.10;99.90;;;;;;5009031;28;20477;-76
2021/07/01 05:11:38;;;;;;;1.58;1.48;;;13.10;99.90;;;;;;5010028;28;20867;-76
2021/07/01 05:14:05;;;;;;;1.57;1.47;;;13.10;99.90;;;;;;5009750;28;20257;-76
2021/07/01 05:16:34;;;;;;;2.15;1.70;;;13.20;99.90;;;;;;5009715;28;20859;-76
2021/07/01 05:19:02;;;;;;;1.90;1.60;;;13.20;99.90;;;;;;5009612;28;20202;-75
2021/07/01 05:21:29;;;;;;;1.77;1.67;;;13.20;99.90;;;;;;5009308;28;20565;-76
2021/07/01 05:23:57;;;;;;;2.30;1.60;;;13.20;99.90;;;;;;5009316;28;20245;-76
2021/07/01 05:26:24;;;;;;;1.60;1.40;;;13.30;99.90;;;;;;5009723;28;20469;-76
2021/07/01 05:28:51;;;;;;;1.53;1.43;;;13.20;99.90;;;;;;5009423;28;20874;-76
2021/07/01 05:31:18;;;;;;;2.10;1.90;;;13.20;99.90;;;;;;5008514;28;20469;-76
2021/07/01 05:33:45;;;;;;;1.40;1.30;;;13.30;99.90;;;;;;5009337;28;20226;-75
2021/07/01 05:36:12;;;;;;;3.03;1.47;;;13.30;99.90;;;;;;5009453;28;21050;-76
2021/07/01 05:38:39;;;;;;;2.10;1.70;;;13.30;99.90;;;;;;5009367;28;20461;-76
2021/07/01 05:41:07;;;;;;;1.70;1.60;;;13.40;99.90;;;;;;5008977;28;20468;-76
2021/07/01 05:43:34;;;;;;;2.00;1.50;;;13.40;99.90;;;;;;5009224;28;20591;-76
2021/07/01 05:46:02;;;;;;;1.47;1.33;;;13.40;99.90;;;;;;5009024;28;20460;-76
2021/07/01 05:48:29;;;;;;;2.03;1.47;;;13.40;99.90;;;;;;5009263;28;20560;-75
2021/07/01 05:51:01;;;;;;;1.67;1.57;;;13.50;99.90;;;;;;5008650;28;20469;-76
2021/07/01 05:53:30;;;;;;;1.90;1.33;;;13.50;99.90;;;;;;5009138;28;20488;-76
2021/07/01 05:55:56;;;;;;;1.63;1.43;;;13.50;99.90;;;;;;5008984;28;20485;-76
2021/07/01 05:58:24;;;;;;;1.77;1.43;;;13.40;99.90;;;;;;5009514;28;20549;-75
2021/07/01 06:00:51;;;;;;;4.05;1.67;;;13.40;99.90;;;;;;5008545;28;20474;-75
2021/07/01 06:03:18;;;;;;;1.60;1.50;;;13.40;99.90;;;;;;5009199;28;20225;-75
2021/07/01 06:05:46;;;;;;;1.53;1.30;;;13.40;99.90;;;;;;5009121;28;20464;-74
2021/07/01 06:08:14;;;;;;;1.60;1.30;;;13.40;99.90;;;;;;5009773;28;20481;-73
2021/07/01 06:10:42;;;;;;;1.43;1.33;;;13.50;99.90;;;;;;5008974;28;20469;-73
2021/07/01 06:13:10;;;;;;;2.00;1.57;;;13.40;99.90;;;;;;5010026;28;20619;-74
2021/07/01 06:15:39;;;;;;;2.35;1.60;;;13.40;99.90;;;;;;5009742;28;20543;-74
2021/07/01 06:18:06;;;;;;;1.43;1.33;;;13.40;99.90;;;;;;5008854;28;20207;-74
2021/07/01 06:20:32;;;;;;;2.20;1.30;;;13.50;99.90;;;;;;5008767;28;20467;-74
2021/07/01 06:22:59;;;;;;;2.03;1.50;;;13.50;99.90;;;;;;5008731;28;20547;-74
2021/07/01 06:25:26;;;;;;;2.10;1.50;;;13.50;99.90;;;;;;5009356;28;20468;-75
2021/07/01 06:27:53;;;;;;;2.05;1.52;;;13.50;99.90;;;;;;5008794;28;20464;-75
2021/07/01 06:30:21;;;;;;;2.07;1.30;;;13.50;99.90;;;;;;5008755;28;20202;-74
2021/07/01 06:32:51;;;;;;;2.53;1.50;;;13.60;99.90;;;;;;5009127;28;20563;-75
2021/07/01 06:35:20;;;;;;;1.70;1.60;;;13.50;99.90;;;;;;5009098;28;20492;-75
2021/07/01 06:37:48;;;;;;;1.73;1.63;;;13.60;99.90;;;;;;5008934;28;20210;-74
2021/07/01 06:40:16;;;;;;;1.80;1.70;;;13.60;99.90;;;;;;5008514;28;20468;-75
2021/07/01 06:42:47;;;;;;;1.60;1.50;;;13.60;99.90;;;;;;5010567;28;20472;-74
2021/07/01 06:45:15;;;;;;;4.47;1.70;;;13.60;99.90;;;;;;5012471;28;20465;-75
2021/07/01 06:47:46;;;;;;;2.40;1.40;;;13.60;99.90;;;;;;5012409;28;20476;-73
2021/07/01 06:50:15;;;;;;;1.60;1.50;;;13.70;99.90;;;;;;5011672;28;20461;-73
2021/07/01 06:52:44;;;;;;;1.87;1.67;;;13.70;99.90;;;;;;5012216;28;20473;-74
2021/07/01 06:55:13;;;;;;;1.70;1.60;;;13.80;99.90;;;;;;5012350;28;20473;-74
2021/07/01 06:57:40;;;;;;;2.10;1.90;;;13.80;99.90;;;;;;5012202;28;20520;-75
2021/07/01 07:00:09;;;;;;;2.10;1.47;;;13.80;99.90;;;;;;5011880;28;20511;-73
2021/07/01 07:02:37;;;;;;;1.93;1.73;;;13.80;99.90;;;;;;5012071;28;20519;-75
2021/07/01 07:05:04;;;;;;;2.70;1.80;;;13.80;99.90;;;;;;5011989;28;20469;-75
2021/07/01 07:07:33;;;;;;;1.77;1.67;;;13.80;99.90;;;;;;5011898;28;20474;-75
2021/07/01 07:10:03;;;;;;;1.60;1.50;;;13.80;99.90;;;;;;5025232;22;20505;-66
2021/07/01 07:12:30;;;;;;;3.20;1.87;;;13.80;99.90;;;;;;5011742;28;20794;-66
2021/07/01 07:14:57;;;;;;;3.13;2.10;;;13.80;99.90;;;;;;5011741;28;20453;-65
2021/07/01 07:17:28;;;;;;;2.50;2.10;;;13.80;99.90;;;;;;5011597;28;20844;-66
2021/07/01 07:19:57;;;;;;;2.07;1.90;;;13.90;99.90;;;;;;5011092;28;20543;-65
2021/07/01 07:22:27;;;;;;;6.63;3.50;;;13.90;99.90;;;;;;5011496;28;20523;-65
2021/07/01 07:25:01;;;;;;;2.60;2.40;;;14.00;99.90;;;;;;5011460;28;20465;-65
2021/07/01 07:27:30;;;;;;;2.80;2.20;;;14.10;99.90;;;;;;5011530;28;20465;-65
2021/07/01 07:29:57;;;;;;;2.40;2.20;;;14.20;99.90;;;;;;5010936;28;20461;-65
2021/07/01 07:32:27;;;;;;;2.63;2.10;;;14.20;99.90;;;;;;5011395;28;20457;-65
2021/07/01 07:34:54;;;;;;;3.53;2.20;;;14.20;99.90;;;;;;5011190;28;20458;-66
2021/07/01 07:37:21;;;;;;;4.30;2.43;;;14.20;99.90;;;;;;5011261;28;20485;-65
2021/07/01 07:39:48;;;;;;;3.57;2.27;;;14.30;99.90;;;;;;5007942;28;20496;-66
2021/07/01 07:42:18;;;;;;;3.33;2.20;;;14.40;99.90;;;;;;5008380;28;20461;-66
2021/07/01 07:44:45;;;;;;;2.97;2.43;;;14.40;99.90;;;;;;5009841;28;20488;-66
2021/07/01 07:47:13;;;;;;;2.50;2.30;;;14.50;99.90;;;;;;5008419;28;20836;-66
2021/07/01 07:49:40;;;;;;;3.77;2.30;;;14.60;99.90;;;;;;5008608;28;20461;-66
2021/07/01 07:52:10;;;;;;;2.70;2.50;;;14.70;99.90;;;;;;5008883;28;20937;-66
2021/07/01 07:54:45;;;;;;;3.93;2.53;;;14.80;99.90;;;;;;5008349;28;20851;-67
2021/07/01 07:57:13;;;;;;;3.10;2.20;;;14.80;99.90;;;;;;5008585;28;20509;-66
2021/07/01 07:59:43;;;;;;;3.60;2.70;;;14.80;99.90;;;;;;5008172;28;20465;-66
2021/07/01 08:02:25;;;;;;;3.47;2.70;;;14.90;99.90;;;;;;5008900;28;20467;-66
2021/07/01 08:04:51;;;;;;;3.13;2.83;;;14.80;99.90;;;;;;5008888;28;20481;-66
2021/07/01 08:07:21;;;;;;;4.17;2.13;;;14.80;99.90;;;;;;5008900;28;20461;-67
2021/07/01 08:09:47;;;;;;;3.00;2.70;;;14.80;99.90;;;;;;5008255;28;20832;-66
2021/07/01 08:12:17;;;;;;;3.33;2.67;;;14.80;99.90;;;;;;5008712;28;20556;-67
2021/07/01 08:14:45;;;;;;;2.57;2.30;;;14.80;99.90;;;;;;5009314;28;21122;-67
2021/07/01 08:17:14;;;;;;;3.60;2.50;;;14.80;99.90;;;;;;5009081;28;21003;-66
2021/07/01 08:19:41;;;;;;;2.83;2.50;;;14.80;99.90;;;;;;5008084;28;20480;-66
2021/07/01 08:22:09;;;;;;;2.83;2.63;;;14.90;99.90;;;;;;5007558;28;20494;-66
2021/07/01 08:24:37;;;;;;;2.90;2.63;;;14.90;99.90;;;;;;5007789;28;20488;-66
2021/07/01 08:27:04;;;;;;;2.87;2.60;;;15.00;99.90;;;;;;5008084;28;20466;-66
2021/07/01 08:29:32;;;;;;;3.67;3.00;;;15.00;99.90;;;;;;5007625;28;20469;-66
2021/07/01 08:32:06;;;;;;;3.00;2.70;;;15.00;99.90;;;;;;5008233;28;20476;-68
2021/07/01 08:34:37;;;;;;;3.40;3.00;;;15.00;99.90;;;;;;5007952;28;20553;-66
2021/07/01 08:37:05;;;;;;;2.80;2.60;;;14.90;99.90;;;;;;5007819;28;20477;-66
2021/07/01 08:39:33;;;;;;;2.70;2.50;;;14.90;99.90;;;;;;5007083;28;20458;-66
2021/07/01 08:42:04;;;;;;;4.00;2.80;;;14.80;99.90;;;;;;5007574;28;20564;-67
2021/07/01 08:44:39;;;;;;;3.47;3.17;;;14.90;99.90;;;;;;5007509;28;20477;-67
2021/07/01 08:47:13;;;;;;;2.53;2.33;;;14.80;99.90;;;;;;5005119;28;20823;-67
2021/07/01 08:49:55;;;;;;;6.97;3.50;;;14.80;99.90;;;;;;5010027;28;20495;-67
2021/07/01 08:52:26;;;;;;;3.13;2.80;;;14.80;99.90;;;;;;5016044;28;20470;-67
2021/07/01 08:54:59;;;;;;;2.97;2.77;;;14.80;99.90;;;;;;5016646;28;20972;-67
2021/07/01 08:57:31;;;;;;;3.20;2.90;;;14.80;99.90;;;;;;5016513;28;20915;-68
2021/07/01 09:00:13;;;;;;;3.10;2.80;;;14.80;99.90;;;;;;5017947;28;20457;-67
2021/07/01 09:03:03;;;;;;;3.20;2.90;;;14.70;99.90;;;;;;5007496;28;20457;-67
2021/07/01 09:05:31;;;;;;;3.70;3.07;;;14.80;99.90;;;;;;5013975;28;20484;-66
2021/07/01 09:08:08;;;;;;;3.27;2.90;;;14.80;99.90;;;;;;5015049;28;20465;-66
2021/07/01 09:10:36;;;;;;;3.97;2.90;;;14.90;99.90;;;;;;5012328;28;20456;-65
2021/07/01 09:13:08;;;;;;;3.97;3.03;;;14.90;99.90;;;;;;5013780;28;20519;-67
2021/07/01 09:15:37;;;;;;;3.10;2.87;;;15.00;99.90;;;;;;5014227;28;20461;-67
2021/07/01 09:18:11;;;;;;;3.00;2.80;;;15.00;99.90;;;;;;5013992;28;20513;-67
2021/07/01 09:20:44;;;;;;;3.60;3.30;;;14.90;99.90;;;;;;5013843;28;20549;-66
2021/07/01 09:23:19;;;;;;;3.97;3.57;;;14.90;99.90;;;;;;5014600;28;20485;-65
2021/07/01 09:25:57;;;;;;;3.13;2.93;;;14.90;99.90;;;;;;5012132;28;20449;-66
2021/07/01 09:28:26;;;;;;;3.80;3.10;;;14.90;99.90;;;;;;5013998;28;20645;-67
2021/07/01 09:30:54;;;;;;;3.47;3.03;;;14.90;99.90;;;;;;5013580;28;20467;-67
2021/07/01 09:33:23;;;;;;;3.17;2.93;;;14.90;99.90;;;;;;5003524;28;20493;-67
2021/07/01 09:35:52;;;;;;;3.13;2.83;;;14.90;99.90;;;;;;5004541;28;20465;-68
2021/07/01 09:38:22;;;;;;;3.50;2.87;;;14.90;99.90;;;;;;5005367;28;20457;-67
2021/07/01 09:40:52;;;;;;;3.40;3.10;;;14.90;99.90;;;;;;5003991;28;20465;-67
2021/07/01 09:43:23;;;;;;;3.50;3.07;;;15.00;99.90;;;;;;5005554;28;20481;-67
2021/07/01 09:45:56;;;;;;;3.30;3.00;;;15.00;99.90;;;;;;5006294;28;20465;-69
2021/07/01 09:48:32;;;;;;;3.13;2.83;;;15.10;99.90;;;;;;5003095;28;20465;-67
2021/07/01 09:51:04;;;;;;;3.40;3.10;;;15.10;99.90;;;;;;5004277;28;20970;-67
2021/07/01 09:53:34;;;;;;;3.60;3.00;;;15.10;99.90;;;;;;5003151;28;20491;-68
2021/07/01 09:56:08;;;;;;;5.10;3.10;;;15.20;99.90;;;;;;5004419;28;20461;-68
2021/07/01 09:58:39;;;;;;;3.40;2.63;;;15.20;99.90;;;;;;5005121;28;20492;-67
2021/07/01 10:01:06;;;;;;;4.13;2.93;;;15.20;99.90;;;;;;5004776;28;20457;-67
2021/07/01 10:04:01;;;;;;;3.60;3.03;;;15.30;99.90;;;;;;5004897;28;20845;-67
2021/07/01 10:06:29;;;;;;;3.57;2.97;;;15.20;99.90;;;;;;5005047;28;20457;-67
2021/07/01 10:08:57;;;;;;;5.07;2.77;;;15.20;99.90;;;;;;5005155;28;20475;-67
2021/07/01 10:11:41;;;;;;;3.63;2.37;;;15.20;99.90;;;;;;5004430;28;20511;-67
2021/07/01 10:14:14;;;;;;;5.60;2.63;;;15.20;99.90;;;;;;5004434;28;20493;-67
2021/07/01 10:16:41;;;;;;;5.13;2.50;;;15.30;99.90;;;;;;5008993;28;20503;-67
2021/07/01 10:19:18;;;;;;;1.93;1.83;;;15.30;99.90;;;;;;5009347;28;20840;-68
2021/07/01 10:21:45;;;;;;;2.10;1.90;;;15.30;99.90;;;;;;5010860;28;20707;-67
2021/07/01 10:24:19;;;;;;;1.83;1.73;;;15.20;99.90;;;;;;5010511;28;21007;-67
2021/07/01 10:26:48;;;;;;;2.50;2.10;;;15.10;99.90;;;;;;5010481;28;20464;-68
2021/07/01 10:29:16;;;;;;;1.90;1.80;;;15.10;99.90;;;;;;5009937;28;20926;-68
2021/07/01 10:31:56;;;;;;;2.30;2.10;;;15.20;99.90;;;;;;5010135;28;20507;-67
2021/07/01 10:34:26;;;;;;;2.00;1.90;;;15.20;99.90;;;;;;5010744;28;20848;-67
2021/07/01 10:37:18;;;;;;;2.20;2.00;;;15.20;99.90;;;;;;5011452;28;20488;-68
2021/07/01 10:39:45;;;;;;;2.57;2.37;;;15.30;99.90;;;;;;5009666;28;20461;-68
2021/07/01 10:42:15;;;;;;;2.47;2.00;;;15.30;99.90;;;;;;5010099;28;20465;-68
2021/07/01 10:44:45;;;;;;;2.90;2.17;;;15.20;99.90;;;;;;5010305;28;20477;-68
2021/07/01 10:47:35;;;;;;;2.90;2.13;;;15.20;99.90;;;;;;5009967;28;20472;-68
2021/07/01 10:50:22;;;;;;;2.07;1.93;;;15.20;99.90;;;;;;5009451;28;20472;-68
2021/07/01 10:52:49;;;;;;;2.40;2.20;;;15.20;99.90;;;;;;5010301;28;20485;-68
2021/07/01 10:55:17;;;;;;;2.43;2.23;;;15.30;99.90;;;;;;5006423;28;20465;-68
2021/07/01 10:57:54;;;;;;;2.80;2.00;;;15.30;99.90;;;;;;5009292;28;20512;-68
2021/07/01 11:00:40;;;;;;;2.60;2.40;;;15.30;99.90;;;;;;5009285;28;20472;-68
2021/07/01 11:03:28;;;;;;;2.17;1.97;;;15.20;99.90;;;;;;5008776;28;21010;-68
2021/07/01 11:05:58;;;;;;;2.60;2.40;;;15.20;99.90;;;;;;5010324;28;20567;-68
2021/07/01 11:08:27;;;;;;;2.50;2.30;;;15.20;99.90;;;;;;5009763;28;20469;-68
2021/07/01 11:10:55;;;;;;;2.53;2.33;;;15.00;99.90;;;;;;5009231;28;20464;-68
2021/07/01 11:13:24;;;;;;;2.20;2.00;;;14.90;99.90;;;;;;5009708;28;20485;-68
2021/07/01 11:16:05;;;;;;;2.00;1.80;;;14.80;99.90;;;;;;5009282;28;20465;-68
2021/07/01 11:18:41;;;;;;;2.03;1.80;;;14.80;99.90;;;;;;5009271;28;20582;-68
2021/07/01 11:21:15;;;;;;;2.13;1.93;;;14.70;99.90;;;;;;5009091;28;20469;-68
2021/07/01 11:23:45;;;;;;;2.10;1.90;;;14.70;99.90;;;;;;5009297;28;20830;-68
2021/07/01 11:26:36;;;;;;;2.70;1.90;;;14.70;99.90;;;;;;5009372;28;20569;-68
2021/07/01 11:29:08;;;;;;;2.33;2.13;;;14.70;99.90;;;;;;5008384;28;20500;-68
2021/07/01 11:31:37;;;;;;;2.40;2.20;;;14.60;99.90;;;;;;5009750;28;20987;-68
2021/07/01 11:34:08;;;;;;;2.47;2.27;;;14.60;99.90;;;;;;5007683;28;20488;-68
2021/07/01 11:36:38;;;;;;;2.70;2.50;;;14.50;99.90;;;;;;5009464;28;20964;-68
2021/07/01 11:39:12;;;;;;;2.60;2.40;;;14.40;99.90;;;;;;5009090;28;20504;-68
2021/07/01 11:41:43;;;;;;;2.60;2.40;;;14.40;99.90;;;;;;5009103;28;20464;-68
2021/07/01 11:44:13;;;;;;;2.97;2.63;;;14.40;99.90;;;;;;5008904;28;20524;-68
2021/07/01 11:46:44;;;;;;;2.87;2.57;;;14.40;99.90;;;;;;5008811;28;20465;-68
2021/07/01 11:49:11;;;;;;;2.53;2.33;;;14.40;99.90;;;;;;5008249;28;20493;-68
2021/07/01 11:51:41;;;;;;;3.57;3.27;;;14.50;99.90;;;;;;5009057;28;20536;-68
2021/07/01 11:54:09;;;;;;;2.50;2.30;;;14.50;99.90;;;;;;5008243;28;20482;-68
2021/07/01 11:59:27;;;;;;;2.67;2.47;;;14.50;99.90;;;;;;5007624;28;20461;-68
2021/07/01 12:01:58;;;;;;;2.70;2.50;;;14.60;99.90;;;;;;5008843;28;20469;-68
2021/07/01 12:04:31;;;;;;;3.60;2.47;;;14.70;99.90;;;;;;5008402;28;20480;-68
2021/07/01 12:07:07;;;;;;;3.27;2.40;;;14.80;99.90;;;;;;5008275;28;20453;-68
2021/07/01 12:09:38;;;;;;;2.40;2.20;;;14.80;99.90;;;;;;5005535;28;20836;-68
2021/07/01 12:12:18;;;;;;;3.20;2.30;;;14.90;99.90;;;;;;5007494;28;20464;-68
2021/07/01 12:14:47;;;;;;;3.60;2.47;;;15.00;99.90;;;;;;5005750;28;20477;-68
2021/07/01 12:17:35;;;;;;;2.80;2.60;;;15.20;99.90;;;;;;5006501;28;20576;-68
2021/07/01 12:20:25;;;;;;;2.70;2.50;;;15.30;99.90;;;;;;5004388;28;20465;-69
2021/07/01 12:23:00;;;;;;;2.50;2.30;;;15.40;99.90;;;;;;5001709;28;20492;-71
2021/07/01 12:25:44;;;;;;;3.33;3.10;;;15.50;99.90;;;;;;5007180;28;20979;-70
2021/07/01 12:28:14;;;;;;;2.50;2.30;;;15.50;99.90;;;;;;5006807;28;20505;-69
2021/07/01 12:31:08;;;;;;;3.37;2.80;;;15.60;99.90;;;;;;5006074;28;20461;-69
2021/07/01 12:33:44;;;;;;;3.53;3.23;;;15.70;99.90;;;;;;5006607;28;20483;-69
2021/07/01 12:36:15;;;;;;;3.33;2.90;;;15.80;99.90;;;;;;5005966;28;20457;-69
2021/07/01 12:39:24;;;;;;;4.80;3.30;;;16.00;99.90;;;;;;5005871;28;20481;-68
2021/07/01 12:41:54;;;;;;;2.97;2.70;;;16.10;99.90;;;;;;5005780;28;20555;-69
2021/07/01 12:44:28;;;;;;;5.83;3.10;;;16.20;99.90;;;;;;5005845;28;20484;-68
2021/07/01 12:47:08;;;;;;;3.53;3.23;;;16.30;99.90;;;;;;5005673;28;20473;-68
2021/07/01 12:50:04;;;;;;;3.57;3.27;;;16.20;99.90;;;;;;5003787;28;20465;-68
2021/07/01 12:52:37;;;;;;;3.50;3.20;;;16.10;99.90;;;;;;5005832;28;20453;-68
2021/07/01 12:55:13;;;;;;;3.50;3.20;;;16.00;99.90;;;;;;5003318;28;20503;-68
2021/07/01 12:57:40;;;;;;;4.00;3.30;;;16.00;99.90;;;;;;5006047;28;20528;-68
2021/07/01 13:00:08;;;;;;;3.73;3.43;;;15.90;99.90;;;;;;5004212;28;21299;-68
2021/07/01 13:02:35;;;;;;;3.93;3.33;;;15.90;99.90;;;;;;5005720;28;20826;-68
2021/07/01 13:05:05;;;;;;;3.77;3.37;;;15.90;99.90;;;;;;5005463;28;20465;-68